createdAt,value
2023-03-19T00:05:34.688Z,100688.22
2023-03-19T00:15:36.529Z,100697.75
2023-03-19T00:25:38.031Z,100701.19
2023-03-19T00:35:40.443Z,100702.06
2023-03-19T00:45:42.036Z,100696.88
2023-03-19T00:55:43.751Z,100677.91
2023-03-19T01:15:52.448Z,100676.22
2023-03-19T01:25:53.812Z,100694.38
2023-03-19T01:35:55.534Z,100698.72
2023-03-19T01:46:00.609Z,100681.47
2023-03-19T01:56:24.070Z,100672.88
2023-03-19T02:06:25.570Z,100681.47
2023-03-19T02:16:27.467Z,100677.19
2023-03-19T02:26:31.201Z,100672.84
2023-03-19T02:36:46.441Z,100659.06
2023-03-19T02:46:47.862Z,100672.84
2023-03-19T02:56:50.325Z,100672.84
2023-03-19T03:06:51.874Z,100670.28
2023-03-19T03:16:53.604Z,100658.19
2023-03-19T03:26:54.951Z,100675.44
2023-03-19T03:36:56.694Z,100681.44
2023-03-19T03:46:59.464Z,100694.41
2023-03-19T03:57:03.421Z,100696.13
2023-03-19T04:07:05.218Z,100703.00
2023-03-19T04:17:06.996Z,100706.44
2023-03-19T04:27:08.529Z,100709.00
2023-03-19T04:37:10.675Z,100721.09
2023-03-19T04:47:12.288Z,100732.28
2023-03-19T04:57:13.693Z,100727.09
2023-03-19T05:07:15.112Z,100727.94
2023-03-19T05:17:16.895Z,100736.53
2023-03-19T05:27:18.462Z,100746.03
2023-03-19T05:37:19.913Z,100738.28
2023-03-19T05:47:21.435Z,100758.97
2023-03-19T05:57:22.946Z,100759.84
2023-03-19T06:07:24.326Z,100777.09
2023-03-19T06:17:25.706Z,100774.50
2023-03-19T06:27:27.485Z,100788.31
2023-03-19T06:37:29.175Z,100792.63
2023-03-19T06:47:30.987Z,100808.97
2023-03-19T06:57:32.351Z,100812.44
2023-03-19T07:07:33.844Z,100820.22
2023-03-19T07:17:35.314Z,100827.06
2023-03-19T07:27:36.818Z,100842.59
2023-03-19T07:37:38.276Z,100842.59
2023-03-19T07:47:40.140Z,100852.06
2023-03-19T07:57:41.665Z,100855.53
2023-03-19T08:07:43.714Z,100853.78
2023-03-19T08:17:45.221Z,100862.31
2023-03-19T08:27:47.231Z,100876.06
2023-03-19T08:37:48.621Z,100886.38
2023-03-19T08:47:50.170Z,100888.06
2023-03-19T08:57:51.571Z,100892.28
2023-03-19T09:07:53.663Z,100899.03
2023-03-19T09:17:55.386Z,100898.13
2023-03-19T09:27:56.884Z,100901.41
2023-03-19T09:37:59.606Z,100903.88
2023-03-19T09:48:15.577Z,100917.53
2023-03-19T09:58:18.474Z,100921.78
2023-03-19T10:08:39.239Z,100931.19
2023-03-19T10:18:49.838Z,100943.50
2023-03-19T10:29:00.353Z,100947.78
2023-03-19T10:39:04.636Z,100950.31
2023-03-19T10:49:12.952Z,100951.03
2023-03-19T10:59:22.751Z,100960.66
2023-03-19T11:09:39.366Z,100960.66
2023-03-19T11:19:42.581Z,100957.94
2023-03-19T11:29:45.094Z,100961.22
2023-03-19T11:40:01.962Z,100954.94
2023-03-19T11:50:18.700Z,100961.94
2023-03-19T12:00:35.337Z,100948.09
2023-03-19T12:10:39.542Z,100951.50
2023-03-19T12:21:08.482Z,100953.00
2023-03-19T12:31:23.637Z,100944.22
2023-03-19T12:41:28.312Z,100951.09
2023-03-19T12:51:42.051Z,100944.91
2023-03-19T13:02:11.801Z,100956.13
2023-03-19T13:12:21.558Z,100961.19
2023-03-19T13:22:28.065Z,100942.50
2023-03-19T13:32:50.085Z,100937.09
2023-03-19T13:42:57.173Z,100936.41
2023-03-19T13:53:26.967Z,100939.25
2023-03-19T14:03:31.827Z,100944.63
2023-03-19T14:13:47.208Z,100945.50
2023-03-19T14:23:55.015Z,100946.47
2023-03-19T14:34:11.673Z,100947.28
2023-03-19T14:44:37.800Z,100958.63
2023-03-19T14:54:49.094Z,100956.09
2023-03-19T15:04:51.207Z,100950.75
2023-03-19T15:15:17.562Z,100959.19
2023-03-19T15:25:19.592Z,100960.81
2023-03-19T15:35:24.410Z,100957.47
2023-03-19T15:45:27.801Z,100968.66
2023-03-19T15:55:29.963Z,100980.13
2023-03-19T16:05:32.536Z,100997.59
2023-03-19T16:15:43.813Z,100996.88
2023-03-19T16:25:46.683Z,101003.78
2023-03-19T16:35:51.993Z,101004.78
2023-03-19T16:46:06.141Z,101023.03
2023-03-19T16:56:13.043Z,101047.34
2023-03-19T17:06:15.819Z,101051.81
2023-03-19T17:16:17.405Z,101076.13
2023-03-19T17:26:25.809Z,101093.56
2023-03-19T17:36:27.246Z,101095.34
2023-03-19T17:46:29.383Z,101104.13
2023-03-19T17:56:30.875Z,101107.69
2023-03-19T18:06:35.347Z,101125.13
2023-03-19T18:16:36.925Z,101145.13
2023-03-19T18:26:38.448Z,101151.25
2023-03-19T18:36:40.601Z,101176.44
2023-03-19T18:46:42.312Z,101186.13
2023-03-19T18:56:44.947Z,101196.53
2023-03-19T19:06:48.184Z,101223.38
2023-03-19T19:16:51.084Z,101230.34
2023-03-19T19:26:53.948Z,101244.16
2023-03-19T19:36:58.522Z,101253.69
2023-03-19T19:47:01.883Z,101262.31
2023-03-19T19:57:03.565Z,101283.94
2023-03-19T20:07:05.099Z,101298.63
2023-03-19T20:17:06.596Z,101302.09
2023-03-19T20:27:30.428Z,101310.72
2023-03-19T20:37:31.954Z,101324.50
2023-03-19T20:47:34.284Z,101351.25
2023-03-19T20:57:35.709Z,101351.25
2023-03-19T21:07:37.197Z,101369.28
2023-03-19T21:17:38.974Z,101364.06
2023-03-19T21:27:44.610Z,101371.72
2023-03-19T21:37:47.479Z,101371.63
2023-03-19T21:47:48.902Z,101377.66
2023-03-19T21:57:51.303Z,101387.88
2023-03-19T22:07:53.837Z,101393.09
2023-03-19T22:17:55.301Z,101397.34
2023-03-19T22:27:56.904Z,101407.56
2023-03-19T22:37:58.404Z,101407.53
2023-03-19T22:48:00.271Z,101408.38
2023-03-19T22:58:02.363Z,101422.09
2023-03-19T23:08:06.486Z,101428.09
2023-03-19T23:18:21.415Z,101442.59
2023-03-19T23:28:31.923Z,101450.16
2023-03-19T23:38:33.321Z,101444.88
2023-03-19T23:48:38.896Z,101464.69
2023-03-19T23:58:45.981Z,101474.97
